createdAt,value
2023-04-25T00:02:12.697Z,1.00
2023-04-25T00:06:21.502Z,1.00
2023-04-25T00:10:30.227Z,1.00
2023-04-25T00:14:38.962Z,1.00
2023-04-25T00:18:51.668Z,43.20
2023-04-25T00:23:00.274Z,1.00
2023-04-25T00:27:08.885Z,1.00
2023-04-25T00:31:19.732Z,1.00
2023-04-25T00:35:28.416Z,1.00
2023-04-25T00:39:37.192Z,1.00
2023-04-25T00:43:47.753Z,1.00
2023-04-25T00:47:57.426Z,1.00
2023-04-25T00:52:07.201Z,83.30
2023-04-25T00:56:36.710Z,99.90
2023-04-25T01:00:47.934Z,99.90
2023-04-25T01:04:56.602Z,1.00
2023-04-25T01:09:06.377Z,99.90
2023-04-25T01:13:14.999Z,31.80
2023-04-25T01:17:26.409Z,1.00
2023-04-25T01:21:35.214Z,1.00
2023-04-25T01:25:44.563Z,96.20
2023-04-25T01:29:53.992Z,69.70
2023-04-25T01:34:03.158Z,45.50
2023-04-25T01:38:13.649Z,65.80
2023-04-25T01:42:22.356Z,1.00
2023-04-25T01:46:31.836Z,1.00
2023-04-25T01:50:41.214Z,98.10
2023-04-25T01:54:50.626Z,99.90
2023-04-25T01:58:59.846Z,99.90
2023-04-25T02:03:09.506Z,99.90
2023-04-25T02:07:18.297Z,99.90
2023-04-25T02:11:26.963Z,99.90
2023-04-25T02:15:35.912Z,99.90
2023-04-25T02:19:44.619Z,99.90
2023-04-25T02:23:53.739Z,99.90
2023-04-25T02:28:02.905Z,99.90
2023-04-25T02:32:11.485Z,99.90
2023-04-25T02:36:20.270Z,99.90
2023-04-25T02:40:28.993Z,99.90
2023-04-25T02:44:37.632Z,99.90
2023-04-25T02:48:46.353Z,99.90
2023-04-25T02:52:55.082Z,99.90
2023-04-25T02:57:03.853Z,99.90
2023-04-25T03:01:12.497Z,1.00
2023-04-25T03:05:21.281Z,1.00
2023-04-25T03:09:30.022Z,99.90
2023-04-25T03:13:38.721Z,99.90
2023-04-25T03:17:47.343Z,99.90
2023-04-25T03:21:55.935Z,1.00
2023-04-25T03:26:04.916Z,99.90
2023-04-25T03:30:13.673Z,99.90
2023-04-25T03:34:22.663Z,99.90
2023-04-25T03:38:31.330Z,99.90
2023-04-25T03:42:39.956Z,99.90
2023-04-25T03:46:48.600Z,99.90
2023-04-25T03:50:57.405Z,99.90
2023-04-25T03:55:26.983Z,99.90
2023-04-25T03:59:35.776Z,99.90
2023-04-25T04:03:45.008Z,99.90
2023-04-25T04:07:53.856Z,99.90
2023-04-25T04:12:02.992Z,99.90
2023-04-25T04:16:12.402Z,99.90
2023-04-25T04:20:21.074Z,99.90
2023-04-25T04:24:29.805Z,99.90
2023-04-25T04:28:38.969Z,99.90
2023-04-25T04:32:49.442Z,99.90
2023-04-25T04:36:57.860Z,99.90
2023-04-25T04:41:06.571Z,1.00
2023-04-25T04:45:15.806Z,99.90
2023-04-25T04:49:24.419Z,99.90
2023-04-25T04:53:33.330Z,99.90
2023-04-25T04:57:41.955Z,99.90
2023-04-25T05:01:50.933Z,99.90
2023-04-25T05:05:59.573Z,99.90
2023-04-25T05:10:29.190Z,1.00
2023-04-25T05:14:37.919Z,99.90
2023-04-25T05:18:46.655Z,99.90
2023-04-25T05:22:55.384Z,99.90
2023-04-25T05:27:04.024Z,99.90
2023-04-25T05:31:12.791Z,99.90
2023-04-25T05:35:21.586Z,14.50
2023-04-25T05:39:30.311Z,18.70
2023-04-25T05:43:38.930Z,1.00
2023-04-25T05:47:47.697Z,1.00
2023-04-25T05:51:56.390Z,1.00
2023-04-25T05:56:05.330Z,1.00
2023-04-25T06:00:16.958Z,1.00
2023-04-25T06:04:26.051Z,1.00
2023-04-25T06:08:34.990Z,1.00
2023-04-25T06:12:43.936Z,1.00
2023-04-25T06:16:52.568Z,1.00
2023-04-25T06:21:01.500Z,1.00
2023-04-25T06:25:10.377Z,1.00
2023-04-25T06:29:18.980Z,1.00
2023-04-25T06:33:27.722Z,1.00
2023-04-25T06:37:36.386Z,1.00
2023-04-25T06:41:44.921Z,1.00
2023-04-25T06:45:53.527Z,1.00
2023-04-25T06:50:02.207Z,1.00
2023-04-25T06:54:10.836Z,1.00
2023-04-25T06:58:20.195Z,1.00
2023-04-25T07:02:28.879Z,1.00
2023-04-25T07:06:39.299Z,1.00
2023-04-25T07:10:49.921Z,1.00
2023-04-25T07:14:58.289Z,1.00
2023-04-25T07:19:06.917Z,1.00
2023-04-25T07:23:15.789Z,1.00
2023-04-25T07:27:24.468Z,1.00
2023-04-25T07:31:33.071Z,1.00
2023-04-25T07:35:41.745Z,1.00
2023-04-25T07:39:50.366Z,1.00
2023-04-25T07:43:58.987Z,1.00
2023-04-25T07:48:07.579Z,1.00
2023-04-25T07:52:16.574Z,1.00
2023-04-25T07:56:25.192Z,1.00
2023-04-25T08:00:33.866Z,1.00
2023-04-25T08:04:42.707Z,1.00
2023-04-25T08:08:51.794Z,1.00
2023-04-25T08:13:01.271Z,1.00
2023-04-25T08:17:09.864Z,1.00
2023-04-25T08:21:18.597Z,1.00
2023-04-25T08:25:27.228Z,1.00
2023-04-25T08:29:36.496Z,1.00
2023-04-25T08:33:46.228Z,1.00
2023-04-25T08:37:54.962Z,1.00
2023-04-25T08:42:08.199Z,1.00
2023-04-25T08:46:19.940Z,1.00
2023-04-25T08:50:28.683Z,99.90
2023-04-25T08:54:40.359Z,99.90
2023-04-25T08:58:51.649Z,99.90
2023-04-25T09:03:01.881Z,99.90
2023-04-25T09:07:10.703Z,99.90
2023-04-25T09:11:21.792Z,99.90
2023-04-25T09:15:30.901Z,99.90
2023-04-25T09:19:42.609Z,99.90
2023-04-25T09:23:52.800Z,99.90
2023-04-25T09:28:05.002Z,99.90
2023-04-25T09:32:16.285Z,99.90
2023-04-25T09:36:28.143Z,99.90
2023-04-25T09:40:44.982Z,99.90
2023-04-25T09:44:54.941Z,99.90
2023-04-25T09:49:07.111Z,99.90
2023-04-25T09:53:16.048Z,99.90
2023-04-25T09:57:26.018Z,99.90
2023-04-25T10:01:35.501Z,99.90
2023-04-25T10:05:45.524Z,99.90
2023-04-25T10:09:57.234Z,99.90
2023-04-25T10:14:06.876Z,99.90
2023-04-25T10:18:15.825Z,99.90
2023-04-25T10:26:42.075Z,99.90
2023-04-25T10:31:08.725Z,99.90
2023-04-25T10:35:23.281Z,99.90
2023-04-25T10:39:32.115Z,99.90
2023-04-25T10:43:44.675Z,99.90
2023-04-25T10:47:53.404Z,99.90
2023-04-25T10:52:16.325Z,99.90
2023-04-25T10:56:27.164Z,99.90
2023-04-25T11:00:48.212Z,99.90
2023-04-25T11:04:50.153Z,1.00
2023-04-25T11:08:59.145Z,1.00
2023-04-25T11:13:07.884Z,1.00
2023-04-25T11:17:16.677Z,1.00
2023-04-25T11:21:29.033Z,1.00
2023-04-25T11:25:39.980Z,1.00
2023-04-25T11:29:51.408Z,1.00
2023-04-25T11:34:20.829Z,1.00
2023-04-25T11:38:29.956Z,1.00
2023-04-25T11:42:46.473Z,1.00
2023-04-25T11:46:55.102Z,1.00
2023-04-25T11:51:03.861Z,1.00
2023-04-25T11:55:18.261Z,1.00
2023-04-25T11:59:27.620Z,1.00
2023-04-25T12:03:37.861Z,1.00
2023-04-25T12:07:47.415Z,1.00
2023-04-25T12:11:58.966Z,1.00
2023-04-25T12:16:07.906Z,1.00
2023-04-25T12:20:18.954Z,1.00
2023-04-25T12:24:29.221Z,1.00
2023-04-25T12:28:37.988Z,99.90
2023-04-25T12:32:46.624Z,99.90
2023-04-25T12:36:56.905Z,99.90
2023-04-25T12:41:05.806Z,99.90
2023-04-25T12:45:14.479Z,99.90
2023-04-25T12:49:23.507Z,99.90
2023-04-25T12:53:33.217Z,99.90
2023-04-25T12:57:42.703Z,99.90
2023-04-25T13:01:51.444Z,99.90
2023-04-25T13:06:00.988Z,99.90
2023-04-25T13:10:10.444Z,99.90
2023-04-25T13:14:19.137Z,99.90
2023-04-25T13:18:27.798Z,99.90
2023-04-25T13:22:40.383Z,99.90
2023-04-25T13:26:48.910Z,99.90
2023-04-25T13:30:57.516Z,99.90
2023-04-25T13:35:10.614Z,99.90
2023-04-25T13:39:19.407Z,99.90
2023-04-25T13:43:28.072Z,99.90
2023-04-25T13:47:37.258Z,99.90
2023-04-25T13:51:45.863Z,99.90
2023-04-25T13:55:54.535Z,99.90
2023-04-25T14:00:08.872Z,99.90
2023-04-25T14:04:17.533Z,99.90
2023-04-25T14:08:26.669Z,99.90
2023-04-25T14:12:35.341Z,99.90
2023-04-25T14:16:44.036Z,99.90
2023-04-25T14:20:52.648Z,99.90
2023-04-25T14:25:37.842Z,99.90
2023-04-25T14:29:47.288Z,99.90
2023-04-25T14:33:59.126Z,99.90
2023-04-25T14:38:06.581Z,99.90
2023-04-25T14:42:15.331Z,99.90
2023-04-25T14:46:24.667Z,99.90
2023-04-25T14:50:33.510Z,99.90
2023-04-25T14:54:42.247Z,99.90
2023-04-25T14:58:50.902Z,99.90
2023-04-25T15:03:00.559Z,99.90
2023-04-25T15:07:09.694Z,99.90
2023-04-25T15:11:18.394Z,99.90
2023-04-25T15:15:27.740Z,99.90
2023-04-25T15:19:36.329Z,99.90
2023-04-25T15:23:44.938Z,99.90
2023-04-25T15:27:54.483Z,99.90
2023-04-25T15:32:03.298Z,99.90
2023-04-25T15:36:12.215Z,99.90
2023-04-25T15:40:41.531Z,99.90
2023-04-25T15:44:50.171Z,99.90
2023-04-25T15:48:58.997Z,99.90
2023-04-25T15:53:07.731Z,99.90
2023-04-25T15:57:16.375Z,99.90
2023-04-25T16:01:26.457Z,99.90
2023-04-25T16:05:35.265Z,99.90
2023-04-25T16:09:45.021Z,99.90
2023-04-25T16:13:53.906Z,99.90
2023-04-25T16:18:02.762Z,99.90
2023-04-25T16:22:13.058Z,99.90
2023-04-25T16:26:22.614Z,99.90
2023-04-25T16:30:31.334Z,99.90
2023-04-25T16:34:39.897Z,99.90
2023-04-25T16:38:48.610Z,99.90
2023-04-25T16:42:57.241Z,99.90
2023-04-25T16:47:06.106Z,99.90
2023-04-25T16:51:18.257Z,99.90
2023-04-25T16:55:26.958Z,99.90
2023-04-25T16:59:35.568Z,99.90
2023-04-25T17:04:05.369Z,99.90
2023-04-25T17:08:14.083Z,99.90
2023-04-25T17:12:22.913Z,99.90
2023-04-25T17:16:39.066Z,99.90
2023-04-25T17:20:47.848Z,99.90
2023-04-25T17:24:56.496Z,99.90
2023-04-25T17:29:05.107Z,99.90
2023-04-25T17:33:13.952Z,99.90
2023-04-25T17:37:23.156Z,99.90
2023-04-25T17:41:31.765Z,99.90
2023-04-25T17:45:40.568Z,99.90
2023-04-25T17:49:49.375Z,99.90
2023-04-25T17:53:57.940Z,99.90
2023-04-25T17:58:07.457Z,99.90
2023-04-25T18:02:17.113Z,99.90
2023-04-25T18:06:27.702Z,99.90
2023-04-25T18:10:36.428Z,99.90
2023-04-25T18:14:45.866Z,99.90
2023-04-25T18:18:54.602Z,99.90
2023-04-25T18:23:03.519Z,99.90
2023-04-25T18:27:12.106Z,99.90
2023-04-25T18:31:22.326Z,99.90
2023-04-25T18:35:31.155Z,99.90
2023-04-25T18:39:40.829Z,99.90
2023-04-25T18:43:51.482Z,99.90
2023-04-25T18:48:02.492Z,99.90
2023-04-25T18:52:12.807Z,99.90
2023-04-25T18:56:22.932Z,99.90
2023-04-25T19:00:31.652Z,99.90
2023-04-25T19:04:40.629Z,99.90
2023-04-25T19:08:51.094Z,99.90
2023-04-25T19:12:59.899Z,99.90
2023-04-25T19:17:08.766Z,99.90
2023-04-25T19:21:17.436Z,99.90
2023-04-25T19:25:26.483Z,99.90
2023-04-25T19:29:35.307Z,99.90
2023-04-25T19:33:43.982Z,99.90
2023-04-25T19:37:53.075Z,99.90
2023-04-25T19:42:03.136Z,99.90
2023-04-25T19:46:11.790Z,99.90
2023-04-25T19:50:21.789Z,99.90
2023-04-25T19:54:30.877Z,99.90
2023-04-25T19:58:39.512Z,99.90
2023-04-25T20:02:48.444Z,99.90
2023-04-25T20:06:57.137Z,99.90
2023-04-25T20:11:08.457Z,99.90
2023-04-25T20:15:19.038Z,99.90
2023-04-25T20:19:27.763Z,99.90
2023-04-25T20:23:36.386Z,99.90
2023-04-25T20:27:45.250Z,99.90
2023-04-25T20:31:55.824Z,99.90
2023-04-25T20:36:04.847Z,99.90
2023-04-25T20:40:13.728Z,99.90
2023-04-25T20:44:24.449Z,99.90
2023-04-25T20:48:33.186Z,99.90
2023-04-25T20:52:41.916Z,99.90
2023-04-25T20:56:51.006Z,99.90
2023-04-25T21:00:59.997Z,99.90
2023-04-25T21:05:14.877Z,99.90
2023-04-25T21:09:37.934Z,99.90
2023-04-25T21:13:37.579Z,99.90
2023-04-25T21:17:48.539Z,99.90
2023-04-25T21:22:01.837Z,99.90
2023-04-25T21:26:12.343Z,1.00
2023-04-25T21:30:27.506Z,1.00
2023-04-25T21:34:40.608Z,1.00
2023-04-25T21:38:53.549Z,1.00
2023-04-25T21:43:15.773Z,1.00
2023-04-25T21:47:34.206Z,1.00
2023-04-25T21:51:46.820Z,1.00
2023-04-25T21:56:16.565Z,1.00
2023-04-25T22:00:51.080Z,1.00
2023-04-25T22:05:23.702Z,1.00
2023-04-25T22:09:43.856Z,99.90
2023-04-25T22:13:48.749Z,99.90
2023-04-25T22:18:05.702Z,99.90
2023-04-25T22:22:19.394Z,1.00
2023-04-25T22:26:32.716Z,1.00
2023-04-25T22:35:30.410Z,1.00
2023-04-25T22:39:41.543Z,1.00
2023-04-25T22:43:55.255Z,1.00
2023-04-25T22:52:58.492Z,1.00
2023-04-25T22:57:19.890Z,1.00
2023-04-25T23:01:31.858Z,1.00
2023-04-25T23:05:45.232Z,1.00
2023-04-25T23:10:01.721Z,1.00
2023-04-25T23:14:14.576Z,1.00
2023-04-25T23:18:24.893Z,1.00
2023-04-25T23:22:34.534Z,1.00
2023-04-25T23:26:43.267Z,1.00
2023-04-25T23:35:31.548Z,1.00
2023-04-25T23:39:44.931Z,1.00
2023-04-25T23:43:55.084Z,1.00
2023-04-25T23:48:13.473Z,1.00
2023-04-25T23:52:31.146Z,1.00
2023-04-25T23:56:46.366Z,1.00
